createdAt,value
2017-11-10T00:08:11.117Z,18.43
2017-11-10T00:28:41.474Z,20.23
2017-11-10T00:49:18.591Z,17.80
2017-11-10T01:09:51.711Z,15.80
2017-11-10T01:30:22.066Z,13.90
2017-11-10T01:50:57.577Z,14.80
2017-11-10T02:11:29.537Z,18.90
2017-11-10T02:32:02.663Z,20.50
2017-11-10T02:52:35.193Z,18.17
2017-11-10T03:13:12.281Z,17.90
2017-11-10T03:33:47.562Z,19.73
2017-11-10T03:54:20.670Z,20.97
2017-11-10T04:14:53.795Z,16.57
2017-11-10T04:35:30.344Z,13.60
2017-11-10T04:56:04.344Z,10.80
2017-11-10T05:16:36.780Z,9.70
2017-11-10T05:37:09.658Z,9.33
2017-11-10T05:57:46.208Z,7.23
2017-11-10T06:18:21.437Z,5.73
2017-11-10T06:38:55.467Z,9.73
2017-11-10T06:59:30.743Z,10.07
2017-11-10T07:38:01.536Z,12.33
2017-11-10T07:58:35.579Z,9.10
2017-11-10T08:19:09.932Z,10.67
2017-11-10T08:39:42.133Z,13.70
2017-11-10T09:00:17.406Z,13.37
2017-11-10T09:20:52.031Z,13.73
2017-11-10T09:41:34.092Z,9.77
2017-11-10T10:02:13.357Z,6.23
2017-11-10T10:23:03.909Z,4.93
2017-11-10T10:43:39.875Z,4.57
2017-11-10T11:04:15.148Z,4.27
2017-11-10T11:24:53.185Z,4.27
2017-11-10T11:45:30.607Z,4.23
2017-11-10T12:06:04.054Z,3.40
2017-11-10T12:26:36.852Z,3.47
2017-11-10T12:47:12.662Z,2.67
2017-11-10T13:07:45.246Z,2.13
2017-11-10T13:28:18.674Z,1.50
2017-11-10T13:48:54.864Z,1.43
2017-11-10T14:09:30.178Z,1.40
2017-11-10T14:30:04.487Z,1.10
2017-11-10T14:50:39.832Z,1.40
2017-11-10T15:11:14.729Z,1.60
2017-11-10T15:31:48.271Z,2.20
2017-11-10T15:52:19.463Z,2.80
2017-11-10T16:12:53.480Z,3.83
2017-11-10T16:33:29.937Z,4.83
2017-11-10T16:54:07.178Z,3.10
2017-11-10T17:14:42.979Z,2.60
2017-11-10T17:35:21.672Z,3.00
2017-11-10T17:55:57.517Z,2.30
2017-11-10T18:16:30.027Z,2.40
2017-11-10T18:37:08.376Z,3.70
2017-11-10T18:57:45.619Z,5.80
2017-11-10T19:18:24.891Z,6.43
2017-11-10T19:38:59.719Z,4.63
2017-11-10T19:59:37.135Z,2.70
2017-11-10T20:20:10.260Z,2.40
2017-11-10T20:40:45.532Z,4.10
2017-11-10T21:01:20.805Z,3.80
2017-11-10T21:21:56.998Z,3.80
2017-11-10T21:42:34.539Z,3.87
2017-11-10T22:03:11.796Z,5.47
2017-11-10T22:23:49.879Z,4.53
2017-11-10T22:44:25.300Z,4.30
2017-11-10T23:05:04.570Z,4.70
2017-11-10T23:25:39.380Z,4.70
2017-11-10T23:46:13.735Z,4.90
